sensor_id;sensor_type;location;lat;lon;timestamp;pressure;altitude;pressure_sealevel;temperature
15079;BMP180;6932;51.438;5.470;2022-09-09T00:00:26;100486.00;;;34.80
15079;BMP180;6932;51.438;5.470;2022-09-09T00:03:08;100483.00;;;34.80
15079;BMP180;6932;51.438;5.470;2022-09-09T00:08:20;100479.00;;;34.80
15079;BMP180;6932;51.438;5.470;2022-09-09T00:10:58;100476.00;;;34.80
15079;BMP180;6932;51.438;5.470;2022-09-09T00:13:42;100474.00;;;34.80
15079;BMP180;6932;51.438;5.470;2022-09-09T00:16:19;100476.00;;;34.80
15079;BMP180;6932;51.438;5.470;2022-09-09T00:21:18;100470.00;;;34.80
15079;BMP180;6932;51.438;5.470;2022-09-09T00:23:56;100466.00;;;34.80
15079;BMP180;6932;51.438;5.470;2022-09-09T00:31:38;100467.00;;;34.80
15079;BMP180;6932;51.438;5.470;2022-09-09T00:34:20;100464.00;;;34.80
15079;BMP180;6932;51.438;5.470;2022-09-09T00:36:50;100459.00;;;34.80
15079;BMP180;6932;51.438;5.470;2022-09-09T00:39:40;100456.00;;;34.80
15079;BMP180;6932;51.438;5.470;2022-09-09T00:42:18;100452.00;;;34.70
15079;BMP180;6932;51.438;5.470;2022-09-09T00:46:00;100457.00;;;34.70
15079;BMP180;6932;51.438;5.470;2022-09-09T00:48:11;100456.00;;;34.70
15079;BMP180;6932;51.438;5.470;2022-09-09T00:50:59;100451.00;;;34.70
15079;BMP180;6932;51.438;5.470;2022-09-09T00:57:03;100456.00;;;34.70
15079;BMP180;6932;51.438;5.470;2022-09-09T00:59:57;100456.00;;;34.70
15079;BMP180;6932;51.438;5.470;2022-09-09T01:05:24;100445.00;;;34.70
15079;BMP180;6932;51.438;5.470;2022-09-09T01:07:51;100447.00;;;34.70
15079;BMP180;6932;51.438;5.470;2022-09-09T01:10:37;100441.00;;;34.70
15079;BMP180;6932;51.438;5.470;2022-09-09T01:13:15;100445.00;;;34.70
15079;BMP180;6932;51.438;5.470;2022-09-09T01:15:45;100443.00;;;34.70
15079;BMP180;6932;51.438;5.470;2022-09-09T01:18:16;100441.00;;;34.70
15079;BMP180;6932;51.438;5.470;2022-09-09T01:20:58;100448.00;;;34.70
15079;BMP180;6932;51.438;5.470;2022-09-09T01:24:08;100440.00;;;34.70
15079;BMP180;6932;51.438;5.470;2022-09-09T01:26:46;100449.00;;;34.70
15079;BMP180;6932;51.438;5.470;2022-09-09T01:29:16;100439.00;;;34.70
15079;BMP180;6932;51.438;5.470;2022-09-09T01:31:57;100430.00;;;34.70
15079;BMP180;6932;51.438;5.470;2022-09-09T01:34:38;100432.00;;;34.70
15079;BMP180;6932;51.438;5.470;2022-09-09T01:37:10;100437.00;;;34.70
15079;BMP180;6932;51.438;5.470;2022-09-09T01:39:40;100430.00;;;34.70
15079;BMP180;6932;51.438;5.470;2022-09-09T01:42:10;100430.00;;;34.70
15079;BMP180;6932;51.438;5.470;2022-09-09T01:44:37;100435.00;;;34.70
15079;BMP180;6932;51.438;5.470;2022-09-09T01:47:05;100429.00;;;34.70
15079;BMP180;6932;51.438;5.470;2022-09-09T01:52:37;100421.00;;;34.70
15079;BMP180;6932;51.438;5.470;2022-09-09T01:55:04;100424.00;;;34.70
15079;BMP180;6932;51.438;5.470;2022-09-09T01:58:03;100417.00;;;34.70
15079;BMP180;6932;51.438;5.470;2022-09-09T02:00:24;100417.00;;;34.70
15079;BMP180;6932;51.438;5.470;2022-09-09T02:03:21;100423.00;;;34.70
15079;BMP180;6932;51.438;5.470;2022-09-09T02:06:13;100415.00;;;34.70
15079;BMP180;6932;51.438;5.470;2022-09-09T02:08:59;100413.00;;;34.70
15079;BMP180;6932;51.438;5.470;2022-09-09T02:11:28;100408.00;;;34.70
15079;BMP180;6932;51.438;5.470;2022-09-09T02:14:16;100413.00;;;34.70
15079;BMP180;6932;51.438;5.470;2022-09-09T02:17:11;100414.00;;;34.70
15079;BMP180;6932;51.438;5.470;2022-09-09T02:19:56;100411.00;;;34.70
15079;BMP180;6932;51.438;5.470;2022-09-09T02:22:28;100414.00;;;34.70
15079;BMP180;6932;51.438;5.470;2022-09-09T02:24:58;100412.00;;;34.70
15079;BMP180;6932;51.438;5.470;2022-09-09T02:27:25;100412.00;;;34.70
15079;BMP180;6932;51.438;5.470;2022-09-09T02:29:53;100410.00;;;34.70
15079;BMP180;6932;51.438;5.470;2022-09-09T02:32:23;100400.00;;;34.70
15079;BMP180;6932;51.438;5.470;2022-09-09T02:35:07;100405.00;;;34.70
15079;BMP180;6932;51.438;5.470;2022-09-09T02:37:39;100400.00;;;34.70
15079;BMP180;6932;51.438;5.470;2022-09-09T02:40:09;100405.00;;;34.70
15079;BMP180;6932;51.438;5.470;2022-09-09T02:42:49;100407.00;;;34.70
15079;BMP180;6932;51.438;5.470;2022-09-09T02:45:31;100399.00;;;34.70
15079;BMP180;6932;51.438;5.470;2022-09-09T02:48:19;100404.00;;;34.70
15079;BMP180;6932;51.438;5.470;2022-09-09T02:51:07;100399.00;;;34.60
15079;BMP180;6932;51.438;5.470;2022-09-09T02:54:01;100400.00;;;34.60
15079;BMP180;6932;51.438;5.470;2022-09-09T02:56:37;100406.00;;;34.60
15079;BMP180;6932;51.438;5.470;2022-09-09T02:59:05;100408.00;;;34.60
15079;BMP180;6932;51.438;5.470;2022-09-09T03:01:31;100405.00;;;34.60
15079;BMP180;6932;51.438;5.470;2022-09-09T03:03:57;100404.00;;;34.60
15079;BMP180;6932;51.438;5.470;2022-09-09T03:06:22;100402.00;;;34.60
15079;BMP180;6932;51.438;5.470;2022-09-09T03:08:48;100409.00;;;34.60
15079;BMP180;6932;51.438;5.470;2022-09-09T03:11:16;100403.00;;;34.60
15079;BMP180;6932;51.438;5.470;2022-09-09T03:13:42;100390.00;;;34.60
15079;BMP180;6932;51.438;5.470;2022-09-09T03:16:08;100402.00;;;34.60
15079;BMP180;6932;51.438;5.470;2022-09-09T03:18:33;100405.00;;;34.60
15079;BMP180;6932;51.438;5.470;2022-09-09T03:21:00;100409.00;;;34.60
15079;BMP180;6932;51.438;5.470;2022-09-09T03:23:26;100418.00;;;34.60
15079;BMP180;6932;51.438;5.470;2022-09-09T03:25:52;100416.00;;;34.60
15079;BMP180;6932;51.438;5.470;2022-09-09T03:28:22;100415.00;;;34.60
15079;BMP180;6932;51.438;5.470;2022-09-09T03:30:48;100415.00;;;34.60
15079;BMP180;6932;51.438;5.470;2022-09-09T03:33:14;100420.00;;;34.70
15079;BMP180;6932;51.438;5.470;2022-09-09T03:35:48;100415.00;;;34.70
15079;BMP180;6932;51.438;5.470;2022-09-09T03:38:14;100423.00;;;34.60
15079;BMP180;6932;51.438;5.470;2022-09-09T03:40:48;100413.00;;;34.60
15079;BMP180;6932;51.438;5.470;2022-09-09T03:43:14;100416.00;;;34.60
15079;BMP180;6932;51.438;5.470;2022-09-09T03:45:46;100417.00;;;34.70
15079;BMP180;6932;51.438;5.470;2022-09-09T03:48:16;100416.00;;;34.60
15079;BMP180;6932;51.438;5.470;2022-09-09T03:50:51;100415.00;;;34.70
15079;BMP180;6932;51.438;5.470;2022-09-09T03:53:20;100416.00;;;34.60
15079;BMP180;6932;51.438;5.470;2022-09-09T03:55:52;100417.00;;;34.60
15079;BMP180;6932;51.438;5.470;2022-09-09T03:58:21;100417.00;;;34.60
15079;BMP180;6932;51.438;5.470;2022-09-09T04:01:07;100417.00;;;34.60
15079;BMP180;6932;51.438;5.470;2022-09-09T04:03:39;100412.00;;;34.60
15079;BMP180;6932;51.438;5.470;2022-09-09T04:06:08;100414.00;;;34.60
15079;BMP180;6932;51.438;5.470;2022-09-09T04:08:35;100411.00;;;34.60
15079;BMP180;6932;51.438;5.470;2022-09-09T04:11:02;100414.00;;;34.60
15079;BMP180;6932;51.438;5.470;2022-09-09T04:13:31;100410.00;;;34.60
15079;BMP180;6932;51.438;5.470;2022-09-09T04:15:59;100407.00;;;34.60
15079;BMP180;6932;51.438;5.470;2022-09-09T04:18:26;100399.00;;;34.60
15079;BMP180;6932;51.438;5.470;2022-09-09T04:20:54;100400.00;;;34.60
15079;BMP180;6932;51.438;5.470;2022-09-09T04:23:24;100389.00;;;34.60
15079;BMP180;6932;51.438;5.470;2022-09-09T04:25:54;100394.00;;;34.60
15079;BMP180;6932;51.438;5.470;2022-09-09T04:28:23;100402.00;;;34.60
15079;BMP180;6932;51.438;5.470;2022-09-09T04:30:49;100397.00;;;34.60
15079;BMP180;6932;51.438;5.470;2022-09-09T04:33:15;100392.00;;;34.60
15079;BMP180;6932;51.438;5.470;2022-09-09T04:35:48;100390.00;;;34.60
15079;BMP180;6932;51.438;5.470;2022-09-09T04:38:16;100386.00;;;34.50
15079;BMP180;6932;51.438;5.470;2022-09-09T04:40:46;100394.00;;;34.60
15079;BMP180;6932;51.438;5.470;2022-09-09T04:43:13;100385.00;;;34.60
15079;BMP180;6932;51.438;5.470;2022-09-09T04:45:41;100382.00;;;34.60
15079;BMP180;6932;51.438;5.470;2022-09-09T04:48:07;100386.00;;;34.50
15079;BMP180;6932;51.438;5.470;2022-09-09T04:50:33;100387.00;;;34.50
15079;BMP180;6932;51.438;5.470;2022-09-09T04:53:06;100391.00;;;34.60
15079;BMP180;6932;51.438;5.470;2022-09-09T04:55:34;100386.00;;;34.50
15079;BMP180;6932;51.438;5.470;2022-09-09T04:58:08;100385.00;;;34.50
15079;BMP180;6932;51.438;5.470;2022-09-09T05:00:35;100377.00;;;34.50
15079;BMP180;6932;51.438;5.470;2022-09-09T05:03:07;100370.00;;;34.50
15079;BMP180;6932;51.438;5.470;2022-09-09T05:05:34;100379.00;;;34.50
15079;BMP180;6932;51.438;5.470;2022-09-09T05:08:09;100372.00;;;34.50
15079;BMP180;6932;51.438;5.470;2022-09-09T05:10:38;100385.00;;;34.50
15079;BMP180;6932;51.438;5.470;2022-09-09T05:13:05;100380.00;;;34.50
15079;BMP180;6932;51.438;5.470;2022-09-09T05:15:32;100378.00;;;34.50
15079;BMP180;6932;51.438;5.470;2022-09-09T05:18:01;100363.00;;;34.50
15079;BMP180;6932;51.438;5.470;2022-09-09T05:20:28;100375.00;;;34.50
15079;BMP180;6932;51.438;5.470;2022-09-09T05:22:56;100380.00;;;34.50
15079;BMP180;6932;51.438;5.470;2022-09-09T05:25:23;100382.00;;;34.50
15079;BMP180;6932;51.438;5.470;2022-09-09T05:27:51;100375.00;;;34.50
15079;BMP180;6932;51.438;5.470;2022-09-09T05:30:17;100376.00;;;34.50
15079;BMP180;6932;51.438;5.470;2022-09-09T05:32:44;100384.00;;;34.50
15079;BMP180;6932;51.438;5.470;2022-09-09T05:35:10;100372.00;;;34.50
15079;BMP180;6932;51.438;5.470;2022-09-09T05:37:35;100382.00;;;34.50
15079;BMP180;6932;51.438;5.470;2022-09-09T05:40:01;100378.00;;;34.50
15079;BMP180;6932;51.438;5.470;2022-09-09T05:42:31;100375.00;;;34.40
15079;BMP180;6932;51.438;5.470;2022-09-09T05:44:57;100385.00;;;34.40
15079;BMP180;6932;51.438;5.470;2022-09-09T05:47:23;100380.00;;;34.40
15079;BMP180;6932;51.438;5.470;2022-09-09T05:49:49;100381.00;;;34.40
15079;BMP180;6932;51.438;5.470;2022-09-09T05:52:15;100385.00;;;34.40
15079;BMP180;6932;51.438;5.470;2022-09-09T05:54:40;100389.00;;;34.40
15079;BMP180;6932;51.438;5.470;2022-09-09T05:57:08;100388.00;;;34.40
15079;BMP180;6932;51.438;5.470;2022-09-09T05:59:33;100395.00;;;34.40
15079;BMP180;6932;51.438;5.470;2022-09-09T06:01:59;100395.00;;;34.40
15079;BMP180;6932;51.438;5.470;2022-09-09T06:04:25;100396.00;;;34.40
15079;BMP180;6932;51.438;5.470;2022-09-09T06:06:50;100396.00;;;34.40
15079;BMP180;6932;51.438;5.470;2022-09-09T06:09:16;100397.00;;;34.40
15079;BMP180;6932;51.438;5.470;2022-09-09T06:11:43;100397.00;;;34.30
15079;BMP180;6932;51.438;5.470;2022-09-09T06:14:09;100387.00;;;34.30
15079;BMP180;6932;51.438;5.470;2022-09-09T06:16:35;100380.00;;;34.30
15079;BMP180;6932;51.438;5.470;2022-09-09T06:19:03;100373.00;;;34.30
15079;BMP180;6932;51.438;5.470;2022-09-09T06:21:35;100388.00;;;34.30
15079;BMP180;6932;51.438;5.470;2022-09-09T06:24:05;100374.00;;;34.30
15079;BMP180;6932;51.438;5.470;2022-09-09T06:26:34;100379.00;;;34.30
15079;BMP180;6932;51.438;5.470;2022-09-09T06:29:02;100390.00;;;34.30
15079;BMP180;6932;51.438;5.470;2022-09-09T06:31:31;100395.00;;;34.20
15079;BMP180;6932;51.438;5.470;2022-09-09T06:33:59;100398.00;;;34.20
15079;BMP180;6932;51.438;5.470;2022-09-09T06:36:33;100383.00;;;34.20
15079;BMP180;6932;51.438;5.470;2022-09-09T06:39:00;100378.00;;;34.20
15079;BMP180;6932;51.438;5.470;2022-09-09T06:41:31;100375.00;;;34.20
15079;BMP180;6932;51.438;5.470;2022-09-09T06:43:58;100383.00;;;34.10
15079;BMP180;6932;51.438;5.470;2022-09-09T06:46:28;100382.00;;;34.10
15079;BMP180;6932;51.438;5.470;2022-09-09T06:48:55;100376.00;;;34.10
15079;BMP180;6932;51.438;5.470;2022-09-09T06:51:31;100391.00;;;34.10
15079;BMP180;6932;51.438;5.470;2022-09-09T06:53:59;100383.00;;;34.00
15079;BMP180;6932;51.438;5.470;2022-09-09T06:56:32;100378.00;;;34.00
15079;BMP180;6932;51.438;5.470;2022-09-09T06:59:01;100378.00;;;34.00
15079;BMP180;6932;51.438;5.470;2022-09-09T07:01:32;100386.00;;;34.10
15079;BMP180;6932;51.438;5.470;2022-09-09T07:03:59;100396.00;;;34.00
15079;BMP180;6932;51.438;5.470;2022-09-09T07:06:31;100387.00;;;34.10
15079;BMP180;6932;51.438;5.470;2022-09-09T07:09:06;100388.00;;;34.10
15079;BMP180;6932;51.438;5.470;2022-09-09T07:11:40;100387.00;;;34.10
15079;BMP180;6932;51.438;5.470;2022-09-09T07:14:07;100393.00;;;34.00
15079;BMP180;6932;51.438;5.470;2022-09-09T07:16:34;100387.00;;;34.10
15079;BMP180;6932;51.438;5.470;2022-09-09T07:19:03;100391.00;;;34.00
15079;BMP180;6932;51.438;5.470;2022-09-09T07:21:31;100389.00;;;34.00
15079;BMP180;6932;51.438;5.470;2022-09-09T07:23:57;100389.00;;;34.00
15079;BMP180;6932;51.438;5.470;2022-09-09T07:26:26;100390.00;;;34.00
15079;BMP180;6932;51.438;5.470;2022-09-09T07:28:53;100361.00;;;34.00
15079;BMP180;6932;51.438;5.470;2022-09-09T07:31:27;100387.00;;;34.00
15079;BMP180;6932;51.438;5.470;2022-09-09T07:33:54;100379.00;;;34.00
15079;BMP180;6932;51.438;5.470;2022-09-09T07:36:29;100372.00;;;34.00
15079;BMP180;6932;51.438;5.470;2022-09-09T07:39:03;100386.00;;;33.90
15079;BMP180;6932;51.438;5.470;2022-09-09T07:41:42;100369.00;;;33.90
15079;BMP180;6932;51.438;5.470;2022-09-09T07:44:15;100386.00;;;33.90
15079;BMP180;6932;51.438;5.470;2022-09-09T07:46:41;100385.00;;;33.90
15079;BMP180;6932;51.438;5.470;2022-09-09T07:49:08;100389.00;;;33.90
15079;BMP180;6932;51.438;5.470;2022-09-09T07:51:38;100385.00;;;33.90
15079;BMP180;6932;51.438;5.470;2022-09-09T07:54:09;100386.00;;;33.90
15079;BMP180;6932;51.438;5.470;2022-09-09T07:56:35;100383.00;;;33.90
15079;BMP180;6932;51.438;5.470;2022-09-09T07:59:03;100382.00;;;33.90
15079;BMP180;6932;51.438;5.470;2022-09-09T08:01:36;100393.00;;;33.90
15079;BMP180;6932;51.438;5.470;2022-09-09T08:04:08;100374.00;;;33.90
15079;BMP180;6932;51.438;5.470;2022-09-09T08:06:40;100394.00;;;33.90
15079;BMP180;6932;51.438;5.470;2022-09-09T08:09:08;100390.00;;;33.90
15079;BMP180;6932;51.438;5.470;2022-09-09T08:11:35;100396.00;;;33.90
15079;BMP180;6932;51.438;5.470;2022-09-09T08:14:03;100387.00;;;33.90
15079;BMP180;6932;51.438;5.470;2022-09-09T08:16:32;100385.00;;;33.90
15079;BMP180;6932;51.438;5.470;2022-09-09T08:18:59;100384.00;;;33.90
15079;BMP180;6932;51.438;5.470;2022-09-09T08:21:28;100387.00;;;33.90
15079;BMP180;6932;51.438;5.470;2022-09-09T08:23:55;100392.00;;;33.90
15079;BMP180;6932;51.438;5.470;2022-09-09T08:26:25;100389.00;;;33.90
15079;BMP180;6932;51.438;5.470;2022-09-09T08:28:55;100394.00;;;33.80
15079;BMP180;6932;51.438;5.470;2022-09-09T08:31:34;100399.00;;;33.80
15079;BMP180;6932;51.438;5.470;2022-09-09T08:34:01;100388.00;;;33.80
15079;BMP180;6932;51.438;5.470;2022-09-09T08:36:42;100391.00;;;33.80
15079;BMP180;6932;51.438;5.470;2022-09-09T08:39:11;100399.00;;;33.80
15079;BMP180;6932;51.438;5.470;2022-09-09T08:44:37;100402.00;;;33.80
15079;BMP180;6932;51.438;5.470;2022-09-09T08:50:37;100396.00;;;33.80
15079;BMP180;6932;51.438;5.470;2022-09-09T08:53:20;100384.00;;;33.80
15079;BMP180;6932;51.438;5.470;2022-09-09T08:55:54;100397.00;;;33.80
15079;BMP180;6932;51.438;5.470;2022-09-09T08:58:33;100403.00;;;33.80
15079;BMP180;6932;51.438;5.470;2022-09-09T09:04:04;100400.00;;;33.70
15079;BMP180;6932;51.438;5.470;2022-09-09T09:12:22;100422.00;;;33.70
15079;BMP180;6932;51.438;5.470;2022-09-09T09:14:49;100420.00;;;33.70
15079;BMP180;6932;51.438;5.470;2022-09-09T09:17:21;100424.00;;;33.80
15079;BMP180;6932;51.438;5.470;2022-09-09T09:19:50;100417.00;;;33.80
15079;BMP180;6932;51.438;5.470;2022-09-09T09:22:22;100428.00;;;33.80
15079;BMP180;6932;51.438;5.470;2022-09-09T09:25:10;100423.00;;;33.80
15079;BMP180;6932;51.438;5.470;2022-09-09T09:30:23;100425.00;;;33.70
15079;BMP180;6932;51.438;5.470;2022-09-09T09:35:24;100429.00;;;33.70
15079;BMP180;6932;51.438;5.470;2022-09-09T09:37:50;100427.00;;;33.70
15079;BMP180;6932;51.438;5.470;2022-09-09T09:40:20;100418.00;;;33.70
15079;BMP180;6932;51.438;5.470;2022-09-09T09:42:59;100413.00;;;33.70
15079;BMP180;6932;51.438;5.470;2022-09-09T09:45:34;100422.00;;;33.80
15079;BMP180;6932;51.438;5.470;2022-09-09T09:48:06;100406.00;;;33.80
15079;BMP180;6932;51.438;5.470;2022-09-09T09:50:34;100422.00;;;33.80
15079;BMP180;6932;51.438;5.470;2022-09-09T09:53:04;100410.00;;;33.80
15079;BMP180;6932;51.438;5.470;2022-09-09T09:55:33;100431.00;;;33.80
15079;BMP180;6932;51.438;5.470;2022-09-09T09:58:05;100409.00;;;33.80
15079;BMP180;6932;51.438;5.470;2022-09-09T10:00:33;100418.00;;;33.80
15079;BMP180;6932;51.438;5.470;2022-09-09T10:03:01;100418.00;;;33.80
15079;BMP180;6932;51.438;5.470;2022-09-09T10:05:29;100420.00;;;33.80
15079;BMP180;6932;51.438;5.470;2022-09-09T10:08:12;100421.00;;;33.80
15079;BMP180;6932;51.438;5.470;2022-09-09T10:14:21;100415.00;;;33.80
15079;BMP180;6932;51.438;5.470;2022-09-09T10:17:49;100434.00;;;33.80
15079;BMP180;6932;51.438;5.470;2022-09-09T10:33:04;100450.00;;;33.70
15079;BMP180;6932;51.438;5.470;2022-09-09T10:38:39;100449.00;;;33.70
15079;BMP180;6932;51.438;5.470;2022-09-09T10:43:55;100447.00;;;33.80
15079;BMP180;6932;51.438;5.470;2022-09-09T10:53:35;100446.00;;;33.70
15079;BMP180;6932;51.438;5.470;2022-09-09T10:56:11;100438.00;;;33.80
15079;BMP180;6932;51.438;5.470;2022-09-09T10:59:24;100431.00;;;33.80
15079;BMP180;6932;51.438;5.470;2022-09-09T11:02:15;100443.00;;;33.80
15079;BMP180;6932;51.438;5.470;2022-09-09T11:04:57;100436.00;;;33.80
15079;BMP180;6932;51.438;5.470;2022-09-09T11:07:39;100437.00;;;33.80
15079;BMP180;6932;51.438;5.470;2022-09-09T11:10:38;100438.00;;;33.80
15079;BMP180;6932;51.438;5.470;2022-09-09T11:13:28;100444.00;;;33.80
15079;BMP180;6932;51.438;5.470;2022-09-09T11:16:19;100411.00;;;33.80
15079;BMP180;6932;51.438;5.470;2022-09-09T11:18:48;100424.00;;;33.80
15079;BMP180;6932;51.438;5.470;2022-09-09T11:21:33;100438.00;;;33.80
15079;BMP180;6932;51.438;5.470;2022-09-09T11:24:06;100434.00;;;33.80
15079;BMP180;6932;51.438;5.470;2022-09-09T11:27:08;100432.00;;;33.80
15079;BMP180;6932;51.438;5.470;2022-09-09T11:41:44;100434.00;;;33.70
15079;BMP180;6932;51.438;5.470;2022-09-09T11:44:18;100432.00;;;33.70
15079;BMP180;6932;51.438;5.470;2022-09-09T11:46:49;100424.00;;;33.80
15079;BMP180;6932;51.438;5.470;2022-09-09T11:49:41;100430.00;;;33.70
15079;BMP180;6932;51.438;5.470;2022-09-09T11:52:40;100440.00;;;33.70
15079;BMP180;6932;51.438;5.470;2022-09-09T11:55:11;100430.00;;;33.70
15079;BMP180;6932;51.438;5.470;2022-09-09T11:57:38;100432.00;;;33.70
15079;BMP180;6932;51.438;5.470;2022-09-09T12:00:06;100425.00;;;33.80
15079;BMP180;6932;51.438;5.470;2022-09-09T12:02:32;100424.00;;;33.80
15079;BMP180;6932;51.438;5.470;2022-09-09T12:05:13;100420.00;;;33.80
15079;BMP180;6932;51.438;5.470;2022-09-09T12:07:56;100410.00;;;33.80
15079;BMP180;6932;51.438;5.470;2022-09-09T12:10:31;100419.00;;;33.70
15079;BMP180;6932;51.438;5.470;2022-09-09T12:13:19;100418.00;;;33.80
15079;BMP180;6932;51.438;5.470;2022-09-09T12:15:54;100421.00;;;33.70
15079;BMP180;6932;51.438;5.470;2022-09-09T12:18:36;100423.00;;;33.70
15079;BMP180;6932;51.438;5.470;2022-09-09T12:21:15;100417.00;;;33.70
15079;BMP180;6932;51.438;5.470;2022-09-09T12:24:11;100420.00;;;33.70
15079;BMP180;6932;51.438;5.470;2022-09-09T12:26:54;100411.00;;;33.70
15079;BMP180;6932;51.438;5.470;2022-09-09T12:29:29;100412.00;;;33.70
15079;BMP180;6932;51.438;5.470;2022-09-09T12:32:15;100421.00;;;33.70
15079;BMP180;6932;51.438;5.470;2022-09-09T12:34:59;100408.00;;;33.70
15079;BMP180;6932;51.438;5.470;2022-09-09T12:39:57;100416.00;;;33.70
15079;BMP180;6932;51.438;5.470;2022-09-09T12:42:25;100409.00;;;33.70
15079;BMP180;6932;51.438;5.470;2022-09-09T12:45:00;100406.00;;;33.70
15079;BMP180;6932;51.438;5.470;2022-09-09T12:47:40;100412.00;;;33.70
15079;BMP180;6932;51.438;5.470;2022-09-09T12:50:22;100400.00;;;33.70
15079;BMP180;6932;51.438;5.470;2022-09-09T12:52:51;100405.00;;;33.70
15079;BMP180;6932;51.438;5.470;2022-09-09T12:55:25;100395.00;;;33.70
15079;BMP180;6932;51.438;5.470;2022-09-09T12:57:52;100388.00;;;33.70
15079;BMP180;6932;51.438;5.470;2022-09-09T13:00:21;100399.00;;;33.70
15079;BMP180;6932;51.438;5.470;2022-09-09T13:03:03;100398.00;;;33.70
15079;BMP180;6932;51.438;5.470;2022-09-09T13:05:40;100397.00;;;33.70
15079;BMP180;6932;51.438;5.470;2022-09-09T13:08:12;100368.00;;;33.70
15079;BMP180;6932;51.438;5.470;2022-09-09T13:11:01;100390.00;;;33.70
15079;BMP180;6932;51.438;5.470;2022-09-09T13:13:42;100375.00;;;33.70
15079;BMP180;6932;51.438;5.470;2022-09-09T13:16:35;100384.00;;;33.60
15079;BMP180;6932;51.438;5.470;2022-09-09T13:19:10;100393.00;;;33.70
15079;BMP180;6932;51.438;5.470;2022-09-09T13:21:40;100379.00;;;33.70
15079;BMP180;6932;51.438;5.470;2022-09-09T13:24:40;100388.00;;;33.60
15079;BMP180;6932;51.438;5.470;2022-09-09T13:27:36;100379.00;;;33.60
15079;BMP180;6932;51.438;5.470;2022-09-09T13:30:26;100380.00;;;33.60
15079;BMP180;6932;51.438;5.470;2022-09-09T13:35:58;100385.00;;;33.60
15079;BMP180;6932;51.438;5.470;2022-09-09T13:38:26;100389.00;;;33.60
15079;BMP180;6932;51.438;5.470;2022-09-09T13:41:04;100390.00;;;33.70
15079;BMP180;6932;51.438;5.470;2022-09-09T13:43:35;100387.00;;;33.70
15079;BMP180;6932;51.438;5.470;2022-09-09T13:46:21;100394.00;;;33.80
15079;BMP180;6932;51.438;5.470;2022-09-09T13:51:37;100392.00;;;33.80
15079;BMP180;6932;51.438;5.470;2022-09-09T13:54:09;100398.00;;;33.90
15079;BMP180;6932;51.438;5.470;2022-09-09T13:56:37;100390.00;;;33.90
15079;BMP180;6932;51.438;5.470;2022-09-09T13:59:09;100386.00;;;33.90
15079;BMP180;6932;51.438;5.470;2022-09-09T14:01:36;100382.00;;;33.90
15079;BMP180;6932;51.438;5.470;2022-09-09T14:04:02;100379.00;;;33.90
15079;BMP180;6932;51.438;5.470;2022-09-09T14:06:29;100386.00;;;33.90
15079;BMP180;6932;51.438;5.470;2022-09-09T14:08:55;100379.00;;;33.90
15079;BMP180;6932;51.438;5.470;2022-09-09T14:11:21;100381.00;;;33.90
15079;BMP180;6932;51.438;5.470;2022-09-09T14:13:48;100386.00;;;33.90
15079;BMP180;6932;51.438;5.470;2022-09-09T14:16:17;100380.00;;;33.90
15079;BMP180;6932;51.438;5.470;2022-09-09T14:18:47;100389.00;;;33.90
15079;BMP180;6932;51.438;5.470;2022-09-09T14:21:13;100385.00;;;33.90
15079;BMP180;6932;51.438;5.470;2022-09-09T14:23:40;100377.00;;;33.90
15079;BMP180;6932;51.438;5.470;2022-09-09T14:26:07;100380.00;;;33.90
15079;BMP180;6932;51.438;5.470;2022-09-09T14:28:35;100390.00;;;33.90
15079;BMP180;6932;51.438;5.470;2022-09-09T14:31:04;100391.00;;;33.90
15079;BMP180;6932;51.438;5.470;2022-09-09T14:33:30;100383.00;;;33.90
15079;BMP180;6932;51.438;5.470;2022-09-09T14:35:58;100374.00;;;33.90
15079;BMP180;6932;51.438;5.470;2022-09-09T14:38:26;100375.00;;;33.90
15079;BMP180;6932;51.438;5.470;2022-09-09T14:40:53;100378.00;;;33.90
15079;BMP180;6932;51.438;5.470;2022-09-09T14:43:19;100360.00;;;33.90
15079;BMP180;6932;51.438;5.470;2022-09-09T14:45:46;100365.00;;;33.90
15079;BMP180;6932;51.438;5.470;2022-09-09T14:48:14;100371.00;;;33.90
15079;BMP180;6932;51.438;5.470;2022-09-09T14:50:41;100364.00;;;33.90
15079;BMP180;6932;51.438;5.470;2022-09-09T14:53:07;100374.00;;;33.90
15079;BMP180;6932;51.438;5.470;2022-09-09T14:55:35;100373.00;;;33.90
15079;BMP180;6932;51.438;5.470;2022-09-09T14:58:00;100363.00;;;33.90
15079;BMP180;6932;51.438;5.470;2022-09-09T15:00:26;100375.00;;;33.90
15079;BMP180;6932;51.438;5.470;2022-09-09T15:02:53;100375.00;;;33.90
15079;BMP180;6932;51.438;5.470;2022-09-09T15:05:19;100379.00;;;33.90
15079;BMP180;6932;51.438;5.470;2022-09-09T15:07:45;100376.00;;;33.90
15079;BMP180;6932;51.438;5.470;2022-09-09T15:10:11;100375.00;;;33.90
15079;BMP180;6932;51.438;5.470;2022-09-09T15:12:37;100373.00;;;33.90
15079;BMP180;6932;51.438;5.470;2022-09-09T15:15:04;100373.00;;;33.90
15079;BMP180;6932;51.438;5.470;2022-09-09T15:17:31;100373.00;;;33.90
15079;BMP180;6932;51.438;5.470;2022-09-09T15:19:57;100378.00;;;33.90
15079;BMP180;6932;51.438;5.470;2022-09-09T15:22:23;100378.00;;;33.90
15079;BMP180;6932;51.438;5.470;2022-09-09T15:24:50;100380.00;;;33.90
15079;BMP180;6932;51.438;5.470;2022-09-09T15:27:16;100377.00;;;33.90
15079;BMP180;6932;51.438;5.470;2022-09-09T15:29:42;100382.00;;;33.90
15079;BMP180;6932;51.438;5.470;2022-09-09T15:32:09;100383.00;;;33.90
15079;BMP180;6932;51.438;5.470;2022-09-09T15:34:35;100363.00;;;33.90
15079;BMP180;6932;51.438;5.470;2022-09-09T15:37:01;100374.00;;;33.90
15079;BMP180;6932;51.438;5.470;2022-09-09T15:39:27;100386.00;;;33.90
15079;BMP180;6932;51.438;5.470;2022-09-09T15:41:52;100379.00;;;33.90
15079;BMP180;6932;51.438;5.470;2022-09-09T15:44:18;100374.00;;;33.90
15079;BMP180;6932;51.438;5.470;2022-09-09T15:46:49;100377.00;;;33.90
15079;BMP180;6932;51.438;5.470;2022-09-09T15:49:17;100384.00;;;33.90
15079;BMP180;6932;51.438;5.470;2022-09-09T15:51:47;100383.00;;;33.90
15079;BMP180;6932;51.438;5.470;2022-09-09T15:54:18;100394.00;;;33.90
15079;BMP180;6932;51.438;5.470;2022-09-09T15:56:45;100393.00;;;33.90
15079;BMP180;6932;51.438;5.470;2022-09-09T15:59:12;100391.00;;;33.90
15079;BMP180;6932;51.438;5.470;2022-09-09T16:01:38;100405.00;;;34.00
15079;BMP180;6932;51.438;5.470;2022-09-09T16:04:05;100404.00;;;34.00
15079;BMP180;6932;51.438;5.470;2022-09-09T16:06:31;100405.00;;;34.00
15079;BMP180;6932;51.438;5.470;2022-09-09T16:08:59;100407.00;;;34.10